Capt. Harry — WDC3690 — position and weather

sailwx.info

Track history (hours):
 
Tides and Currents Weather Stations Pressure Air Temp Water Temp Dewpoint Dewpoint Depression Visibility Wind Speed Wind Dir Waves Ship Positions

Capt. Harry

More information available from US FCC via Universal Licensing System and Coast Guard Vessel Documentation Center.

Last reported at 2014-Sep-07 12:10 UTC. Time now 2014-Sep-21 06:10 UTC.
Position N 39°51' W 075°14'.
Warning: this ship's position is 13 days out of date.

Type: Tug. MMSI: 367012530.

Date/timePositionNaut miles runAvg speedWind from/ knotsBaromVisibWave heightAir tempDewpointWater temp
2014-Sep-07 12:10N 39°51' W 075°14'0 0.2
2014-Sep-07 11:16N 39°51' W 075°14'5 0.1
2014-Sep-05 10:30N 39°51' W 075°20'0 0.1
2014-Sep-05 09:32N 39°51' W 075°21'4 1.9
2014-Sep-05 07:21N 39°49' W 075°25'0 0.1
2014-Sep-05 06:19N 39°49' W 075°25'4 1.2
2014-Sep-05 02:33N 39°51' W 075°20'2 2.3
2014-Sep-05 01:33N 39°50' W 075°23'7 6.5
2014-Sep-05 00:33N 39°45' W 075°29'  
2014-Sep-02 10:29N 39°54' W 075°08'2 0.0
2014-Aug-31 09:16N 39°53' W 075°10'  
Track history (hours):
 
Tides and Currents Weather Stations Pressure Air Temp Water Temp Dewpoint Dewpoint Depression Visibility Wind Speed Wind Dir Waves Ship Positions

Capt. Harry

More information available from US FCC via Universal Licensing System and Coast Guard Vessel Documentation Center.

Last reported at 2014-Sep-07 12:10 UTC. Time now 2014-Sep-21 06:10 UTC.
Position N 39°51' W 075°14'.
Warning: this ship's position is 13 days out of date.

Type: Tug. MMSI: 367012530.

Date/timePositionNaut miles runAvg speedWind from/ knotsBaromVisibWave heightAir tempDewpointWater temp
2014-Sep-07 12:10N 39°51' W 075°14'0 0.2
2014-Sep-07 11:16N 39°51' W 075°14'5 0.1
2014-Sep-05 10:30N 39°51' W 075°20'0 0.1
2014-Sep-05 09:32N 39°51' W 075°21'4 1.9
2014-Sep-05 07:21N 39°49' W 075°25'0 0.1
2014-Sep-05 06:19N 39°49' W 075°25'4 1.2
2014-Sep-05 02:33N 39°51' W 075°20'2 2.3
2014-Sep-05 01:33N 39°50' W 075°23'7 6.5
2014-Sep-05 00:33N 39°45' W 075°29'  
2014-Sep-02 10:29N 39°54' W 075°08'2 0.0
2014-Aug-31 09:16N 39°53' W 075°10'  

Dump ship's entire track history